createdAt,value
2018-04-02T00:02:24.789Z,6.87
2018-04-02T00:04:52.367Z,6.89
2018-04-02T00:07:19.905Z,6.92
2018-04-02T00:09:47.418Z,6.93
2018-04-02T00:12:15.008Z,6.94
2018-04-02T00:14:42.532Z,6.97
2018-04-02T00:17:10.211Z,7.00
2018-04-02T00:19:37.936Z,7.02
2018-04-02T00:22:05.528Z,7.05
2018-04-02T00:24:33.087Z,7.08
2018-04-02T00:27:00.604Z,7.11
2018-04-02T00:29:28.128Z,7.15
2018-04-02T00:31:55.709Z,7.18
2018-04-02T00:34:23.309Z,7.23
2018-04-02T00:36:51.009Z,7.27
2018-04-02T00:39:18.557Z,7.30
2018-04-02T00:41:46.212Z,7.33
2018-04-02T00:44:13.723Z,7.35
2018-04-02T00:46:41.265Z,7.37
2018-04-02T00:49:08.875Z,7.42
2018-04-02T00:51:37.307Z,7.45
2018-04-02T00:54:06.542Z,7.48
2018-04-02T00:56:34.126Z,7.52
2018-04-02T00:59:01.737Z,7.59
2018-04-02T01:01:29.276Z,7.67
2018-04-02T01:03:56.837Z,7.76
2018-04-02T01:06:24.509Z,7.87
2018-04-02T01:08:52.190Z,7.94
2018-04-02T01:11:19.873Z,8.01
2018-04-02T01:13:48.279Z,8.12
2018-04-02T01:16:15.827Z,8.15
2018-04-02T01:18:43.424Z,8.17
2018-04-02T01:21:10.973Z,8.24
2018-04-02T01:23:38.569Z,8.29
2018-04-02T01:26:08.961Z,8.34
2018-04-02T01:28:36.587Z,8.38
2018-04-02T01:31:05.004Z,8.41
2018-04-02T01:33:32.580Z,8.45
2018-04-02T01:36:00.128Z,8.51
2018-04-02T01:38:27.700Z,8.58
2018-04-02T01:40:55.312Z,8.59
2018-04-02T01:43:24.041Z,8.61
2018-04-02T01:45:52.566Z,8.64
2018-04-02T01:48:21.780Z,8.68
2018-04-02T01:50:49.403Z,8.66
2018-04-02T01:53:16.968Z,8.75
2018-04-02T01:55:44.527Z,8.79
2018-04-02T01:58:12.148Z,8.81
2018-04-02T02:00:39.852Z,8.83
2018-04-02T02:03:07.706Z,8.82
2018-04-02T02:05:35.700Z,8.84
2018-04-02T02:08:03.264Z,8.84
2018-04-02T02:10:30.784Z,8.88
2018-04-02T02:12:58.300Z,8.86
2018-04-02T02:15:26.056Z,8.84
2018-04-02T02:17:53.624Z,8.88
2018-04-02T02:20:21.209Z,8.88
2018-04-02T02:22:49.365Z,8.87
2018-04-02T02:25:16.861Z,8.87
2018-04-02T02:27:44.461Z,8.88
2018-04-02T02:30:12.014Z,8.89
2018-04-02T02:32:39.558Z,8.90
2018-04-02T02:35:07.750Z,8.89
2018-04-02T02:37:35.693Z,8.90
2018-04-02T02:40:03.792Z,8.92
2018-04-02T02:42:31.368Z,8.95
2018-04-02T02:44:58.906Z,8.94
2018-04-02T02:47:26.504Z,8.94
2018-04-02T02:49:54.037Z,8.95
2018-04-02T02:52:21.633Z,8.97
2018-04-02T02:54:49.192Z,8.96
2018-04-02T02:57:21.318Z,8.97
2018-04-02T02:59:48.856Z,8.96
2018-04-02T03:02:16.385Z,8.98
2018-04-02T03:04:43.944Z,8.99
2018-04-02T03:07:11.518Z,9.00
2018-04-02T03:09:39.708Z,9.00
2018-04-02T03:12:07.868Z,9.01
2018-04-02T03:14:36.245Z,9.01
2018-04-02T03:17:03.823Z,9.01
2018-04-02T03:19:31.391Z,9.02
2018-04-02T03:21:58.900Z,9.05
2018-04-02T03:24:26.484Z,9.07
2018-04-02T03:26:54.199Z,9.06
2018-04-02T03:29:21.942Z,9.05
2018-04-02T03:31:49.579Z,9.06
2018-04-02T03:34:17.143Z,9.09
2018-04-02T03:36:44.717Z,9.12
2018-04-02T03:39:12.243Z,9.12
2018-04-02T03:41:39.791Z,9.12
2018-04-02T03:44:07.583Z,9.13
2018-04-02T03:46:35.830Z,9.14
2018-04-02T03:49:03.731Z,9.14
2018-04-02T03:51:31.775Z,9.13
2018-04-02T03:53:59.307Z,9.14
2018-04-02T03:56:26.880Z,9.14
2018-04-02T03:58:54.472Z,9.18
2018-04-02T04:01:22.080Z,9.18
2018-04-02T04:03:49.753Z,9.19
2018-04-02T04:06:17.356Z,9.19
2018-04-02T04:08:45.025Z,9.19
2018-04-02T04:11:12.515Z,9.19
2018-04-02T04:13:40.024Z,9.17
2018-04-02T04:16:07.576Z,9.19
2018-04-02T04:18:35.268Z,9.19
2018-04-02T04:21:03.802Z,9.20
2018-04-02T04:23:31.727Z,9.19
2018-04-02T04:26:00.144Z,9.20
2018-04-02T04:28:27.668Z,9.20
2018-04-02T04:30:55.176Z,9.21
2018-04-02T04:33:22.736Z,9.21
2018-04-02T04:35:50.362Z,9.20
2018-04-02T04:38:17.953Z,9.21
2018-04-02T04:40:45.525Z,9.22
2018-04-02T04:43:13.125Z,9.21
2018-04-02T04:45:40.657Z,9.21
2018-04-02T04:48:08.158Z,9.21
2018-04-02T04:50:35.733Z,9.21
2018-04-02T04:53:03.470Z,9.20
2018-04-02T04:55:32.059Z,9.22
2018-04-02T04:58:00.820Z,9.22
2018-04-02T05:00:28.576Z,9.21
2018-04-02T05:02:56.132Z,9.20
2018-04-02T05:05:23.665Z,9.19
2018-04-02T05:07:51.283Z,9.20
2018-04-02T05:10:19.916Z,9.21
2018-04-02T05:12:48.454Z,9.20
2018-04-02T05:15:16.789Z,9.18
2018-04-02T05:17:45.347Z,9.18
2018-04-02T05:20:12.917Z,9.18
2018-04-02T05:22:40.485Z,9.18
2018-04-02T05:25:08.060Z,9.19
2018-04-02T05:27:36.903Z,9.19
2018-04-02T05:30:04.980Z,9.19
2018-04-02T05:32:32.737Z,9.19
2018-04-02T05:35:01.494Z,9.19
2018-04-02T05:37:29.038Z,9.18
2018-04-02T05:39:56.620Z,9.17
2018-04-02T05:42:24.169Z,9.17
2018-04-02T05:44:51.992Z,9.17
2018-04-02T05:47:20.510Z,9.17
2018-04-02T05:49:48.546Z,9.17
2018-04-02T05:52:16.352Z,9.17
2018-04-02T05:54:43.880Z,9.17
2018-04-02T05:57:11.460Z,9.17
2018-04-02T05:59:39.012Z,9.17
2018-04-02T06:02:07.500Z,9.17
2018-04-02T06:04:36.205Z,9.17
2018-04-02T06:07:04.659Z,9.16
2018-04-02T06:09:33.306Z,9.17
2018-04-02T06:12:00.852Z,9.17
2018-04-02T06:14:28.399Z,9.18
2018-04-02T06:16:55.987Z,9.19
2018-04-02T06:19:23.764Z,9.20
2018-04-02T06:21:52.153Z,9.23
2018-04-02T06:24:20.584Z,9.24
2018-04-02T06:26:49.156Z,9.26
2018-04-02T06:29:16.724Z,9.26
2018-04-02T06:31:44.268Z,9.28
2018-04-02T06:34:12.461Z,9.29
2018-04-02T06:36:39.825Z,9.32
2018-04-02T06:39:07.989Z,9.34
2018-04-02T06:41:36.775Z,9.37
2018-04-02T06:44:05.307Z,9.40
2018-04-02T06:46:32.895Z,9.42
2018-04-02T06:49:00.448Z,9.44
2018-04-02T06:51:28.030Z,9.46
2018-04-02T06:53:55.887Z,9.48
2018-04-02T06:56:26.254Z,9.51
2018-04-02T06:58:54.047Z,9.53
2018-04-02T07:01:26.543Z,9.55
2018-04-02T07:03:55.448Z,9.57
2018-04-02T07:06:23.003Z,9.60
2018-04-02T07:08:50.520Z,9.62
2018-04-02T07:11:19.879Z,9.65
2018-04-02T07:13:48.798Z,9.69
2018-04-02T07:16:18.413Z,9.73
2018-04-02T07:18:47.215Z,9.76
2018-04-02T07:21:14.803Z,9.81
2018-04-02T07:23:42.364Z,9.85
2018-04-02T07:26:09.935Z,9.92
2018-04-02T07:28:37.645Z,9.97
2018-04-02T07:31:05.292Z,10.02
2018-04-02T07:33:33.376Z,10.07
2018-04-02T07:36:01.826Z,10.12
2018-04-02T07:38:29.367Z,10.17
2018-04-02T07:40:56.936Z,10.21
2018-04-02T07:43:24.442Z,10.24
2018-04-02T07:45:52.128Z,10.27
2018-04-02T07:48:20.394Z,10.30
2018-04-02T07:50:48.745Z,10.33
2018-04-02T07:53:17.120Z,10.37
2018-04-02T07:55:44.648Z,10.40
2018-04-02T07:58:12.259Z,10.42
2018-04-02T08:00:39.813Z,10.45
2018-04-02T08:03:07.449Z,10.48
2018-04-02T08:05:35.114Z,10.51
2018-04-02T08:08:02.709Z,10.54
2018-04-02T08:10:30.355Z,10.58
2018-04-02T08:12:57.869Z,10.65
2018-04-02T08:15:25.449Z,10.72
2018-04-02T08:17:53.042Z,10.80
2018-04-02T08:20:20.762Z,10.88
2018-04-02T08:22:48.481Z,10.93
2018-04-02T08:25:16.951Z,10.96
2018-04-02T08:27:45.444Z,10.97
2018-04-02T08:30:12.979Z,10.96
2018-04-02T08:32:40.605Z,10.97
2018-04-02T08:35:08.156Z,10.98
2018-04-02T08:37:39.935Z,11.01
2018-04-02T08:40:08.050Z,11.04
2018-04-02T08:42:35.719Z,11.08
2018-04-02T08:47:53.976Z,11.12
2018-04-02T08:50:21.556Z,11.12
2018-04-02T08:52:49.140Z,11.13
2018-04-02T09:04:15.566Z,11.11
2018-04-02T09:06:43.138Z,11.10
2018-04-02T09:09:10.687Z,11.10
2018-04-02T09:21:06.695Z,10.99
2018-04-02T09:23:34.236Z,10.97
2018-04-02T09:26:01.789Z,10.99
2018-04-02T09:28:29.767Z,11.04
2018-04-02T09:31:09.859Z,11.11
2018-04-02T09:39:33.219Z,11.37
2018-04-02T09:42:00.851Z,11.48
2018-04-02T09:44:28.450Z,11.57
2018-04-02T09:55:17.468Z,11.77
2018-04-02T09:57:45.050Z,11.80
2018-04-02T10:00:12.639Z,11.83
2018-04-02T10:02:40.219Z,11.84
2018-04-02T10:14:00.580Z,11.74
2018-04-02T10:16:28.146Z,11.72
2018-04-02T10:18:55.779Z,11.70
2018-04-02T10:29:35.465Z,11.72
2018-04-02T10:32:03.056Z,11.73
2018-04-02T10:34:30.639Z,11.75
2018-04-02T10:36:58.235Z,11.75
2018-04-02T10:39:26.027Z,11.77
2018-04-02T10:42:00.853Z,11.79
2018-04-02T10:44:29.443Z,11.80
2018-04-02T10:46:57.112Z,11.82
2018-04-02T10:49:24.755Z,11.82
2018-04-02T10:51:52.306Z,11.86
2018-04-02T11:02:41.850Z,11.97
2018-04-02T11:05:09.472Z,12.00
2018-04-02T11:07:37.048Z,12.03
2018-04-02T11:10:04.645Z,12.05
2018-04-02T11:12:36.019Z,12.06
2018-04-02T11:15:04.767Z,12.07
2018-04-02T11:17:39.876Z,12.08
2018-04-02T11:22:44.204Z,12.05
2018-04-02T11:25:11.783Z,12.05
2018-04-02T11:27:39.435Z,12.02
2018-04-02T11:30:12.983Z,12.04
2018-04-02T11:35:47.802Z,12.09
2018-04-02T11:38:15.400Z,12.13
2018-04-02T11:40:43.248Z,12.18
2018-04-02T11:43:10.932Z,12.22
2018-04-02T11:45:38.657Z,12.23
2018-04-02T11:51:11.770Z,12.21
2018-04-02T11:56:55.881Z,12.15
2018-04-02T11:59:23.436Z,12.13
2018-04-02T12:01:51.016Z,12.13
2018-04-02T12:07:19.250Z,12.08
2018-04-02T12:09:48.836Z,12.08
2018-04-02T12:12:18.575Z,12.09
2018-04-02T12:14:46.232Z,12.11
2018-04-02T12:17:13.913Z,12.12
2018-04-02T12:19:41.568Z,12.12
2018-04-02T12:25:26.084Z,12.10
2018-04-02T12:30:47.431Z,12.08
2018-04-02T12:33:15.035Z,12.06
2018-04-02T12:35:42.695Z,12.05
2018-04-02T12:38:10.311Z,12.07
2018-04-02T12:40:40.925Z,12.13
2018-04-02T12:43:12.514Z,12.19
2018-04-02T12:45:41.501Z,12.24
2018-04-02T12:48:12.380Z,12.26
2018-04-02T12:50:39.922Z,12.24
2018-04-02T12:53:07.489Z,12.21
2018-04-02T12:55:35.220Z,12.24
2018-04-02T12:58:12.135Z,12.27
2018-04-02T13:00:44.046Z,12.32
2018-04-02T13:06:14.437Z,12.36
2018-04-02T13:08:42.047Z,12.35
2018-04-02T13:11:09.663Z,12.37
2018-04-02T13:24:31.672Z,12.63
2018-04-02T13:26:59.210Z,12.64
2018-04-02T13:29:26.748Z,12.66
2018-04-02T13:31:56.298Z,12.67
2018-04-02T13:34:32.192Z,12.70
2018-04-02T13:37:03.904Z,12.79
2018-04-02T13:39:31.494Z,12.86
2018-04-02T13:41:59.185Z,12.90
2018-04-02T13:44:26.816Z,12.85
2018-04-02T13:58:29.409Z,13.17
2018-04-02T14:00:56.961Z,13.21
2018-04-02T14:03:24.604Z,13.27
2018-04-02T14:05:53.213Z,13.31
2018-04-02T14:14:23.233Z,13.40
2018-04-02T14:16:51.084Z,13.45
2018-04-02T14:19:18.613Z,13.47
2018-04-02T14:30:28.000Z,13.70
2018-04-02T14:32:55.516Z,13.69
2018-04-02T14:35:23.079Z,13.69
2018-04-02T14:37:50.678Z,13.76
2018-04-02T14:40:20.102Z,13.97
2018-04-02T14:42:52.879Z,14.14
2018-04-02T14:45:24.998Z,14.24
2018-04-02T14:47:52.597Z,14.30
2018-04-02T14:50:20.181Z,14.39
2018-04-02T14:52:47.754Z,14.61
2018-04-02T14:55:15.557Z,14.91
2018-04-02T14:57:45.157Z,14.90
2018-04-02T15:00:13.681Z,14.77
2018-04-02T15:02:43.968Z,14.58
2018-04-02T15:05:11.516Z,14.38
2018-04-02T15:07:39.057Z,14.20
2018-04-02T15:10:06.619Z,14.02
2018-04-02T15:12:34.193Z,13.93
2018-04-02T15:15:01.890Z,13.80
2018-04-02T15:17:29.584Z,13.74
2018-04-02T15:20:00.140Z,13.71
2018-04-02T15:22:27.712Z,13.70
2018-04-02T15:24:55.276Z,13.68
2018-04-02T15:27:22.852Z,13.66
2018-04-02T15:29:50.476Z,13.62
2018-04-02T15:32:18.096Z,13.59
2018-04-02T15:34:45.592Z,13.65
2018-04-02T15:37:29.901Z,13.80
2018-04-02T15:39:57.428Z,13.90
2018-04-02T15:42:24.990Z,13.98
2018-04-02T15:44:52.502Z,14.03
2018-04-02T15:47:20.084Z,14.02
2018-04-02T15:49:50.148Z,13.99
2018-04-02T15:52:17.810Z,13.91
2018-04-02T15:54:48.154Z,13.81
2018-04-02T15:57:15.691Z,13.67
2018-04-02T15:59:43.218Z,13.55
2018-04-02T16:02:10.823Z,13.44
2018-04-02T16:04:38.477Z,13.34
2018-04-02T16:14:25.122Z,12.87
2018-04-02T16:16:52.739Z,12.80
2018-04-02T16:19:20.276Z,12.78
2018-04-02T16:21:48.408Z,12.77
2018-04-02T16:32:59.500Z,12.76
2018-04-02T16:35:27.024Z,13.00
2018-04-02T16:37:54.622Z,13.17
2018-04-02T16:49:29.382Z,13.30
2018-04-02T16:51:56.973Z,13.31
2018-04-02T16:54:24.563Z,13.27
2018-04-02T17:08:10.660Z,12.90
2018-04-02T17:10:38.425Z,12.91
2018-04-02T17:13:05.988Z,12.90
2018-04-02T17:24:42.012Z,12.66
2018-04-02T17:27:09.619Z,12.60
2018-04-02T17:29:37.261Z,12.55
2018-04-02T17:41:12.732Z,12.42
2018-04-02T17:43:40.286Z,12.42
2018-04-02T17:46:08.007Z,12.42
2018-04-02T17:57:17.590Z,12.49
2018-04-02T17:59:45.144Z,12.49
2018-04-02T18:02:12.666Z,12.51
2018-04-02T18:04:42.087Z,12.52
2018-04-02T18:15:16.054Z,12.42
2018-04-02T18:17:43.620Z,12.38
2018-04-02T18:20:11.160Z,12.36
2018-04-02T18:22:39.085Z,12.34
2018-04-02T18:25:08.076Z,12.32
2018-04-02T18:32:44.673Z,12.22
2018-04-02T18:35:12.202Z,12.19
2018-04-02T18:37:39.752Z,12.16
2018-04-02T18:47:56.621Z,11.95
2018-04-02T18:50:24.247Z,11.90
2018-04-02T18:52:51.821Z,11.85
2018-04-02T18:55:19.368Z,11.81
2018-04-02T19:03:17.368Z,11.68
2018-04-02T19:05:45.054Z,11.64
2018-04-02T19:08:12.711Z,11.61
2018-04-02T19:10:40.285Z,11.58
2018-04-02T19:13:07.902Z,11.55
2018-04-02T19:15:38.269Z,11.52
2018-04-02T19:18:08.970Z,11.48
2018-04-02T19:20:48.363Z,11.46
2018-04-02T19:23:15.962Z,11.43
2018-04-02T19:25:43.523Z,11.41
2018-04-02T19:28:11.116Z,11.39
2018-04-02T19:30:38.749Z,11.36
2018-04-02T19:33:08.634Z,11.34
2018-04-02T19:35:41.362Z,11.30
2018-04-02T19:38:16.201Z,11.27
2018-04-02T19:40:43.775Z,11.24
2018-04-02T19:43:11.328Z,11.21
2018-04-02T19:45:38.880Z,11.19
2018-04-02T19:48:06.604Z,11.17
2018-04-02T19:50:37.590Z,11.15
2018-04-02T19:53:12.205Z,11.14
2018-04-02T19:55:45.151Z,11.12
2018-04-02T19:58:12.856Z,11.11
2018-04-02T20:00:40.400Z,11.10
2018-04-02T20:03:09.754Z,11.11
2018-04-02T20:11:30.196Z,11.14
2018-04-02T20:14:07.804Z,11.14
2018-04-02T20:16:35.340Z,11.15
2018-04-02T20:19:02.928Z,11.15
2018-04-02T20:21:30.478Z,11.16
2018-04-02T20:26:39.811Z,11.17
2018-04-02T20:29:07.662Z,11.16
2018-04-02T20:31:35.288Z,11.17
2018-04-02T20:34:02.815Z,11.17
2018-04-02T20:36:30.415Z,11.16
2018-04-02T20:38:57.968Z,11.17
2018-04-02T20:41:25.694Z,11.17
2018-04-02T20:43:53.356Z,11.17
2018-04-02T20:46:21.869Z,11.17
2018-04-02T20:48:49.769Z,11.17
2018-04-02T20:51:17.314Z,11.17
2018-04-02T20:53:44.862Z,11.15
2018-04-02T20:56:12.423Z,11.14
2018-04-02T20:58:40.361Z,11.13
2018-04-02T21:01:20.532Z,11.12
2018-04-02T21:03:52.221Z,11.10
2018-04-02T21:06:22.352Z,11.08
2018-04-02T21:08:49.912Z,11.06
2018-04-02T21:11:17.460Z,11.05
2018-04-02T21:13:45.080Z,11.04
2018-04-02T21:16:21.052Z,11.02
2018-04-02T21:18:53.604Z,11.01
2018-04-02T21:21:22.134Z,11.00
2018-04-02T21:23:49.830Z,10.99
2018-04-02T21:26:17.436Z,10.97
2018-04-02T21:28:44.995Z,10.97
2018-04-02T21:31:12.549Z,10.97
2018-04-02T21:33:41.585Z,10.98
2018-04-02T21:36:10.238Z,10.96
2018-04-02T21:38:37.893Z,10.96
2018-04-02T21:41:06.010Z,10.96
2018-04-02T21:43:33.640Z,10.96
2018-04-02T21:46:01.207Z,10.95
2018-04-02T21:48:28.736Z,10.94
2018-04-02T21:50:57.452Z,10.95
2018-04-02T21:53:25.923Z,10.95
2018-04-02T21:55:53.873Z,10.94
2018-04-02T21:58:22.368Z,10.94
2018-04-02T22:00:49.912Z,10.94
2018-04-02T22:03:17.427Z,10.94
2018-04-02T22:05:44.985Z,10.93
2018-04-02T22:08:12.799Z,10.93
2018-04-02T22:10:41.041Z,10.92
2018-04-02T22:13:10.415Z,10.92
2018-04-02T22:15:38.064Z,10.92
2018-04-02T22:18:05.600Z,10.92
2018-04-02T22:20:33.172Z,10.91
2018-04-02T22:23:00.728Z,10.91
2018-04-02T22:25:28.329Z,10.91
2018-04-02T22:27:56.385Z,10.91
2018-04-02T22:30:24.400Z,10.91
2018-04-02T22:32:52.349Z,10.91
2018-04-02T22:35:19.915Z,10.90
2018-04-02T22:37:47.470Z,10.90
2018-04-02T22:40:15.064Z,10.90
2018-04-02T22:42:42.691Z,10.90
2018-04-02T22:45:10.314Z,10.90
2018-04-02T22:47:37.904Z,10.90
2018-04-02T22:50:05.568Z,10.90
2018-04-02T22:52:33.106Z,10.90
2018-04-02T22:55:00.669Z,10.90
2018-04-02T22:57:28.188Z,10.89
2018-04-02T22:59:55.739Z,10.89
2018-04-02T23:02:23.327Z,10.89
2018-04-02T23:04:50.942Z,10.90
2018-04-02T23:07:18.584Z,10.89
2018-04-02T23:09:46.211Z,10.88
2018-04-02T23:12:13.830Z,10.88
2018-04-02T23:14:41.378Z,10.88
2018-04-02T23:17:08.993Z,10.88
2018-04-02T23:19:36.729Z,10.87
2018-04-02T23:22:04.525Z,10.87
2018-04-02T23:24:32.489Z,10.87
2018-04-02T23:27:00.053Z,10.86
2018-04-02T23:29:27.610Z,10.86
2018-04-02T23:31:55.155Z,10.87
2018-04-02T23:34:22.791Z,10.86
2018-04-02T23:36:50.347Z,10.87
2018-04-02T23:39:17.949Z,10.87
2018-04-02T23:41:45.594Z,10.87
2018-04-02T23:44:13.168Z,10.87
2018-04-02T23:46:40.745Z,10.88
2018-04-02T23:49:08.323Z,10.88
2018-04-02T23:51:35.951Z,10.89
2018-04-02T23:56:35.381Z,10.89
2018-04-02T23:59:03.075Z,10.89
